Time;durP1;ratioP1;P1;durP2;ratioP2;P2;SDS_P1;SDS_P2;PMS_P1;PMS_P2;Temp;Humidity;BMP_temperature;BMP_pressure;BME280_temperature;BME280_humidity;BME280_pressure;Samples;Min_cycle;Max_cycle;Signal;HPM_P1;HPM_P2
2022/04/25 00:03:37;;;;;;;12.20;11.10;;;;;;;12.58;60.98;96792.16;8095922;29;20410;-74
2022/04/25 00:07:40;;;;;;;11.50;10.50;;;;;;;12.55;60.55;96800.19;8096569;29;20242;-74
2022/04/25 00:11:44;;;;;;;10.03;9.13;;;;;;;12.42;60.48;96801.03;8096560;29;20241;-74
2022/04/25 00:15:48;;;;;;;10.03;9.03;;;;;;;12.39;60.36;96793.44;8096482;29;20434;-74
2022/04/25 00:19:51;;;;;;;9.80;8.80;;;;;;;12.50;59.96;96788.34;8095936;29;20245;-74
2022/04/25 00:23:54;;;;;;;10.23;9.33;;;;;;;12.49;59.82;96804.88;8095908;29;20249;-75
2022/04/25 00:27:57;;;;;;;9.90;8.97;;;;;;;12.50;59.52;96803.09;8095861;29;20562;-74
2022/04/25 00:32:01;;;;;;;9.43;8.63;;;;;;;12.22;59.94;96809.38;8096440;29;20245;-74
2022/04/25 00:36:05;;;;;;;9.10;8.20;;;;;;;12.49;59.17;96807.47;8095808;29;20250;-74
2022/04/25 00:40:10;;;;;;;8.30;7.60;;;;;;;12.56;59.36;96809.63;8095419;29;20241;-74
2022/04/25 00:44:13;;;;;;;8.73;7.93;;;;;;;12.51;58.95;96808.19;8095668;29;20245;-74
2022/04/25 00:48:18;;;;;;;8.27;7.37;;;;;;;12.42;58.91;96821.81;8095518;29;20261;-75
2022/04/25 00:52:20;;;;;;;8.23;7.53;;;;;;;12.50;58.92;96818.66;8094595;29;20253;-75
2022/04/25 00:56:24;;;;;;;8.37;7.63;;;;;;;12.31;59.27;96821.72;8094124;29;20237;-74
2022/04/25 01:00:27;;;;;;;8.10;7.40;;;;;;;12.36;59.41;96827.44;8094924;29;20242;-75
2022/04/25 01:04:32;;;;;;;8.00;7.30;;;;;;;12.52;59.07;96819.38;8094819;29;20249;-74
2022/04/25 01:08:37;;;;;;;8.30;7.60;;;;;;;12.47;58.68;96821.47;8095072;29;20252;-75
2022/04/25 01:12:40;;;;;;;7.90;7.30;;;;;;;12.44;58.79;96821.69;8094978;29;20269;-75
2022/04/25 01:16:43;;;;;;;8.50;7.73;;;;;;;12.44;58.74;96821.69;8095190;29;20237;-75
2022/04/25 01:20:49;;;;;;;9.43;7.73;;;;;;;12.25;59.17;96822.97;8094848;29;20237;-76
2022/04/25 01:29:15;;;;;;;8.33;7.63;;;;;;;12.35;58.68;96820.56;8094721;29;20249;-74
2022/04/25 01:33:18;;;;;;;8.87;8.00;;;;;;;12.37;58.41;96829.06;8094457;29;20441;-75
2022/04/25 01:37:21;;;;;;;7.93;7.23;;;;;;;12.38;58.72;96837.72;8094404;29;20246;-75
2022/04/25 01:41:25;;;;;;;8.50;7.70;;;;;;;12.36;58.57;96837.00;8093782;29;20248;-74
2022/04/25 01:45:29;;;;;;;8.93;7.43;;;;;;;12.24;58.80;96836.91;8094074;29;20241;-75
2022/04/25 01:49:33;;;;;;;9.10;7.83;;;;;;;12.22;58.83;96840.53;8093923;29;20245;-75
2022/04/25 01:53:36;;;;;;;8.37;7.57;;;;;;;12.34;58.59;96834.50;8093412;29;20249;-74
2022/04/25 01:57:40;;;;;;;8.80;7.90;;;;;;;12.43;58.54;96838.22;8093531;29;20242;-75
2022/04/25 02:01:43;;;;;;;11.53;7.87;;;;;;;12.41;58.77;96843.50;8093525;29;20245;-74
2022/04/25 02:05:46;;;;;;;9.33;8.37;;;;;;;12.28;58.76;96843.53;8093863;29;20237;-75
2022/04/25 02:09:49;;;;;;;8.40;7.60;;;;;;;12.28;59.04;96848.72;8093475;29;20249;-75
2022/04/25 02:13:54;;;;;;;9.03;7.77;;;;;;;12.36;58.61;96847.38;8093365;29;20245;-75
2022/04/25 02:17:58;;;;;;;8.47;7.60;;;;;;;12.39;58.58;96849.75;8093623;29;20244;-75
2022/04/25 02:22:01;;;;;;;9.27;7.83;;;;;;;12.30;58.59;96849.44;8093267;29;20561;-75
2022/04/25 02:26:05;;;;;;;8.80;8.00;;;;;;;12.38;58.89;96859.31;8093142;29;20247;-75
2022/04/25 02:30:11;;;;;;;9.37;8.57;;;;;;;12.36;59.05;96865.56;8093172;29;20255;-74
2022/04/25 02:34:14;;;;;;;8.60;7.77;;;;;;;12.35;59.02;96864.69;8092914;29;20249;-74
2022/04/25 02:38:17;;;;;;;8.77;8.00;;;;;;;12.41;59.54;96866.03;8092907;29;20256;-74
2022/04/25 02:42:20;;;;;;;8.70;7.67;;;;;;;12.44;59.21;96861.47;8092791;29;20245;-74
2022/04/25 02:46:24;;;;;;;10.93;7.90;;;;;;;12.40;59.43;96869.59;8092160;29;20234;-74
2022/04/25 02:50:28;;;;;;;7.87;7.17;;;;;;;12.37;59.48;96877.59;8092422;29;20242;-75
2022/04/25 02:54:32;;;;;;;8.40;7.60;;;;;;;12.35;59.71;96885.47;8092158;29;20249;-75
2022/04/25 02:58:38;;;;;;;8.77;7.97;;;;;;;12.35;59.94;96885.47;8092494;29;20416;-74
2022/04/25 03:02:42;;;;;;;9.33;8.43;;;;;;;12.30;59.50;96888.41;8092249;29;20249;-75
2022/04/25 03:06:45;;;;;;;8.63;7.83;;;;;;;12.38;59.38;96890.47;8092315;29;20520;-74
2022/04/25 03:10:51;;;;;;;10.50;9.60;;;;;;;12.31;59.46;96894.41;8091480;29;20241;-74
2022/04/25 03:14:54;;;;;;;9.67;8.80;;;;;;;12.32;59.40;96889.13;8091805;29;20241;-74
2022/04/25 03:18:58;;;;;;;9.67;8.40;;;;;;;12.36;58.90;96884.56;8095095;29;20237;-74
2022/04/25 03:23:02;;;;;;;9.40;8.20;;;;;;;12.35;59.06;96893.25;8098107;29;20241;-74
2022/04/25 03:27:05;;;;;;;8.90;8.10;;;;;;;12.36;59.04;96894.94;8097768;29;20583;-74
2022/04/25 03:31:08;;;;;;;9.00;8.10;;;;;;;12.33;59.00;96901.16;8097551;29;20544;-74
2022/04/25 03:35:12;;;;;;;9.40;8.50;;;;;;;12.32;59.25;96899.50;8097536;29;20536;-74
2022/04/25 03:39:15;;;;;;;8.90;8.00;;;;;;;12.40;58.73;96900.75;8097429;29;20650;-74
2022/04/25 03:43:18;;;;;;;9.13;8.33;;;;;;;12.29;59.32;96909.25;8097119;29;20245;-74
2022/04/25 03:47:21;;;;;;;9.40;8.33;;;;;;;12.36;58.88;96909.69;8097361;29;20241;-74
2022/04/25 03:51:26;;;;;;;8.70;8.00;;;;;;;12.35;59.22;96906.25;8096681;29;20584;-74
2022/04/25 03:59:49;;;;;;;9.13;8.30;;;;;;;12.37;59.11;96919.13;8096985;29;20406;-74
2022/04/25 04:03:53;;;;;;;8.33;7.63;;;;;;;12.38;59.08;96924.22;8096492;29;20241;-75
2022/04/25 04:08:04;;;;;;;9.03;8.17;;;;;;;12.31;59.33;96930.75;8096731;29;20377;-75
2022/04/25 04:12:10;;;;;;;8.77;7.97;;;;;;;12.31;59.17;96928.16;8096685;29;20253;-74
2022/04/25 04:16:13;;;;;;;9.03;8.23;;;;;;;12.32;59.25;96930.66;8096265;29;20248;-74
2022/04/25 04:20:16;;;;;;;8.37;7.57;;;;;;;12.37;59.33;96945.09;8096096;29;20244;-75
2022/04/25 04:24:20;;;;;;;8.53;7.73;;;;;;;12.33;59.35;96947.88;8095965;29;20245;-74
2022/04/25 04:28:23;;;;;;;9.87;8.97;;;;;;;12.28;59.00;96956.91;8094605;29;20244;-74
2022/04/25 04:32:29;;;;;;;9.60;8.73;;;;;;;12.33;59.07;96960.84;8095338;29;20245;-74
2022/04/25 04:36:31;;;;;;;9.73;8.73;;;;;;;12.38;59.20;96964.94;8095710;29;20241;-74
2022/04/25 04:40:36;;;;;;;9.20;8.30;;;;;;;12.31;59.58;96975.72;8095675;29;20248;-75
2022/04/25 04:44:41;;;;;;;9.90;9.00;;;;;;;12.37;59.51;96979.66;8095411;29;20563;-75
2022/04/25 04:48:43;;;;;;;9.40;8.60;;;;;;;12.37;59.37;96984.84;8095356;29;20240;-75
2022/04/25 04:52:47;;;;;;;10.10;9.10;;;;;;;12.39;59.44;96993.38;8095013;29;20260;-75
2022/04/25 04:56:52;;;;;;;9.97;8.93;;;;;;;12.39;59.37;96995.13;8095365;29;20316;-75
2022/04/25 05:00:55;;;;;;;9.60;8.70;;;;;;;12.35;59.21;96998.88;8094871;29;20237;-75
2022/04/25 05:04:59;;;;;;;9.80;8.90;;;;;;;12.46;59.08;97012.78;8094627;29;20238;-74
2022/04/25 05:09:02;;;;;;;9.80;8.90;;;;;;;12.44;59.56;97012.06;8094523;29;20244;-75
2022/04/25 05:13:06;;;;;;;10.70;9.47;;;;;;;12.47;59.22;97022.25;8094426;29;20245;-75
2022/04/25 05:17:09;;;;;;;9.87;8.97;;;;;;;12.39;60.00;97021.09;8125254;29;20255;-75
2022/04/25 05:21:13;;;;;;;9.80;8.80;;;;;;;12.49;59.38;97028.19;8125567;29;20241;-75
2022/04/25 05:25:18;;;;;;;10.07;9.13;;;;;;;12.48;59.52;97033.47;8125326;29;20267;-75
2022/04/25 05:29:22;;;;;;;10.20;9.20;;;;;;;12.51;59.60;97033.28;8125201;29;20236;-74
2022/04/25 05:33:25;;;;;;;9.83;8.93;;;;;;;12.45;59.75;97042.31;8117376;29;20241;-75
2022/04/25 05:37:28;;;;;;;10.33;9.33;;;;;;;12.43;59.61;97046.78;8124913;29;20535;-75
2022/04/25 05:41:31;;;;;;;9.20;8.40;;;;;;;12.46;59.77;97048.31;8124349;29;20241;-76
2022/04/25 05:45:37;;;;;;;10.30;9.30;;;;;;;12.40;59.66;97051.34;8124769;29;20248;-75
2022/04/25 05:54:01;;;;;;;9.67;8.80;;;;;;;12.56;59.37;97072.75;8124359;29;20244;-75
2022/04/25 05:58:06;;;;;;;10.23;9.20;;;;;;;12.44;59.55;97070.97;8124401;29;20256;-75
2022/04/25 06:02:11;;;;;;;10.50;9.53;;;;;;;12.35;59.88;97076.75;8116166;29;20245;-75
2022/04/25 06:06:20;;;;;;;9.67;8.87;;;;;;;12.49;59.75;97087.91;8092793;29;20249;-75
2022/04/25 06:10:25;;;;;;;11.00;10.00;;;;;;;12.50;59.65;97088.75;8092545;29;20244;-75
2022/04/25 06:14:28;;;;;;;11.30;10.13;;;;;;;12.52;59.64;97098.06;8092374;29;20246;-75
2022/04/25 06:18:32;;;;;;;10.33;9.43;;;;;;;12.55;59.64;97104.03;8092815;29;20407;-76
2022/04/25 06:22:35;;;;;;;11.50;9.27;;;;;;;12.65;59.75;97105.06;8092761;29;20248;-76
2022/04/25 06:26:38;;;;;;;10.47;9.57;;;;;;;12.57;60.20;97104.75;8092710;29;20241;-75
2022/04/25 06:30:41;;;;;;;11.07;10.00;;;;;;;12.73;59.76;97109.75;8092760;29;20237;-76
2022/04/25 06:34:46;;;;;;;10.93;9.83;;;;;;;12.86;59.54;97103.63;8092344;29;20253;-76
2022/04/25 06:38:49;;;;;;;11.30;10.17;;;;;;;12.91;59.51;97124.13;8092461;29;20540;-75
2022/04/25 06:42:56;;;;;;;11.70;10.70;;;;;;;12.89;60.45;97129.41;8092038;29;20241;-75
2022/04/25 06:46:59;;;;;;;11.57;10.47;;;;;;;12.89;59.43;97126.81;8092403;29;20245;-75
2022/04/25 06:51:04;;;;;;;11.90;10.90;;;;;;;13.18;59.02;97129.22;8091960;29;20244;-76
2022/04/25 06:55:07;;;;;;;11.43;10.30;;;;;;;13.24;59.53;97130.56;8091276;29;20256;-75
2022/04/25 06:59:10;;;;;;;12.30;11.10;;;;;;;13.29;59.36;97131.09;8091805;29;20247;-75
2022/04/25 07:03:13;;;;;;;10.80;9.87;;;;;;;13.52;58.25;97133.88;8091587;29;20260;-75
2022/04/25 07:07:18;;;;;;;10.80;9.83;;;;;;;13.56;58.75;97136.19;8091787;29;20238;-75
2022/04/25 07:11:21;;;;;;;9.30;8.57;;;;;;;13.83;57.90;97140.38;8083794;29;20240;-75
2022/04/25 07:15:24;;;;;;;9.90;8.90;;;;;;;13.79;58.00;97144.16;8091149;29;20245;-75
2022/04/25 07:19:27;;;;;;;9.73;8.93;;;;;;;13.96;57.46;97151.59;8091770;29;20252;-76
2022/04/25 07:32:12;;;;;;;9.17;8.27;;;;;;;13.84;57.59;97162.84;8091488;29;20245;-75
2022/04/25 07:36:17;;;;;;;9.47;8.67;;;;;;;13.79;57.36;97165.78;8091319;29;20548;-75
2022/04/25 07:40:23;;;;;;;10.33;9.27;;;;;;;13.64;57.81;97170.28;8091315;29;20241;-75
2022/04/25 07:44:26;;;;;;;9.70;8.70;;;;;;;13.61;57.42;97170.53;8090702;29;20245;-75
2022/04/25 07:48:34;;;;;;;9.40;8.50;;;;;;;13.70;57.76;97179.44;8091010;29;20301;-76
2022/04/25 07:52:37;;;;;;;10.57;9.50;;;;;;;13.27;57.82;97180.59;8090238;29;20256;-75
2022/04/25 07:56:42;;;;;;;10.00;9.03;;;;;;;13.66;57.53;97183.19;8091231;29;20440;-77
2022/04/25 08:00:46;;;;;;;7.70;6.30;;;;;;;15.45;65.19;97184.94;8089892;29;20241;-77
2022/04/25 08:04:50;;;;;;;9.13;6.40;;;;;;;16.48;57.97;97191.75;8094838;29;20249;-77
2022/04/25 08:08:54;;;;;;;8.20;6.47;;;;;;;16.59;53.44;97201.34;8097304;29;20570;-76
2022/04/25 08:21:39;;;;;;;8.27;7.57;;;;;;;15.01;53.40;97217.81;8096118;29;20244;-76
2022/04/25 08:25:42;;;;;;;7.87;7.10;;;;;;;14.88;54.46;97224.06;8096322;29;20257;-77
2022/04/25 08:29:48;;;;;;;7.53;6.83;;;;;;;14.59;53.71;97227.03;8096065;29;20241;-77
2022/04/25 08:33:52;;;;;;;7.03;6.43;;;;;;;14.59;54.19;97237.44;8095681;29;20308;-76
2022/04/25 08:37:55;;;;;;;7.73;7.13;;;;;;;14.59;55.07;97240.06;8096152;29;20245;-76
2022/04/25 08:42:00;;;;;;;8.20;7.40;;;;;;;14.66;55.44;97238.66;8096040;29;20244;-77
2022/04/25 08:46:07;;;;;;;8.17;7.47;;;;;;;14.58;55.57;97246.19;8095742;29;20246;-76
2022/04/25 08:50:11;;;;;;;8.90;8.10;;;;;;;14.41;55.42;97250.81;8095558;29;20248;-77
2022/04/25 08:54:14;;;;;;;8.33;7.63;;;;;;;14.57;55.28;97249.75;8095508;29;20249;-77
2022/04/25 08:58:18;;;;;;;8.53;7.30;;;;;;;14.82;54.67;97254.00;8095789;29;20349;-76
2022/04/25 09:02:23;;;;;;;6.53;6.03;;;;;;;14.74;54.07;97264.19;8095481;29;20245;-76
2022/04/25 09:06:28;;;;;;;6.80;6.27;;;;;;;14.61;54.38;97257.22;8094933;29;20248;-76
2022/04/25 09:10:31;;;;;;;7.30;6.70;;;;;;;14.52;54.34;97263.06;8095341;29;20246;-76
2022/04/25 09:14:35;;;;;;;7.00;6.30;;;;;;;14.54;54.68;97265.56;8094660;29;20250;-76
2022/04/25 09:18:39;;;;;;;6.43;5.63;;;;;;;14.51;54.46;97277.03;8095058;29;20289;-76
2022/04/25 09:22:42;;;;;;;6.33;5.83;;;;;;;14.56;54.61;97280.13;8095139;29;20250;-76
2022/04/25 09:26:45;;;;;;;6.30;5.80;;;;;;;14.36;54.68;97278.13;8094761;29;20248;-76
2022/04/25 09:31:01;;;;;;;7.10;6.50;;;;;;;14.38;54.47;97278.84;8095008;29;20242;-76
2022/04/25 09:35:44;;;;;;;7.20;6.50;;;;;;;14.55;54.98;97285.47;8094466;29;20276;-76
2022/04/25 09:39:48;;;;;;;5.87;5.47;;;;;;;14.48;54.57;97293.72;8094416;29;20237;-75
2022/04/25 09:43:58;;;;;;;6.07;5.33;;;;;;;14.50;53.90;97290.19;8094276;29;20247;-75
2022/04/25 09:48:03;;;;;;;5.73;5.23;;;;;;;14.60;53.60;97291.19;8094113;29;20238;-75
2022/04/25 09:52:11;;;;;;;5.80;5.40;;;;;;;14.82;53.85;97295.72;8093958;29;20314;-75
2022/04/25 09:56:16;;;;;;;6.03;5.50;;;;;;;14.66;52.32;97286.41;8094122;29;20567;-75
2022/04/25 10:00:33;;;;;;;5.23;4.80;;;;;;;14.86;52.35;97290.16;8094083;29;20252;-75
2022/04/25 10:04:37;;;;;;;7.63;6.63;;;;;;;14.97;52.72;97296.38;8093686;29;20269;-75
2022/04/25 10:08:41;;;;;;;4.53;4.23;;;;;;;15.22;52.15;97292.81;8093759;29;20242;-75
2022/04/25 10:12:45;;;;;;;6.70;5.47;;;;;;;15.30;51.99;97294.84;8093725;29;20233;-75
2022/04/25 10:16:48;;;;;;;4.97;4.57;;;;;;;15.21;51.94;97293.75;8093513;29;20255;-75
2022/04/25 10:20:53;;;;;;;4.90;4.50;;;;;;;15.26;51.67;97289.03;8093540;29;20241;-75
2022/04/25 10:24:56;;;;;;;5.10;3.43;;;;;;;15.11;50.84;97285.75;8093421;29;20241;-75
2022/04/25 10:29:08;;;;;;;3.43;3.13;;;;;;;15.36;50.22;97289.16;8093645;29;20257;-75
2022/04/25 10:33:16;;;;;;;4.33;3.93;;;;;;;15.17;50.37;97303.59;8093236;29;20241;-75
2022/04/25 10:37:30;;;;;;;3.73;3.43;;;;;;;15.07;50.88;97293.94;8093080;29;20252;-75
2022/04/25 10:45:58;;;;;;;4.00;3.17;;;;;;;14.92;51.21;97308.91;8093057;29;20241;-75
2022/04/25 10:50:07;;;;;;;4.73;3.13;;;;;;;15.00;51.34;97302.22;8092933;29;20238;-75
2022/04/25 10:54:12;;;;;;;3.90;2.87;;;;;;;15.10;50.95;97302.38;8092760;29;20246;-75
2022/04/25 10:58:20;;;;;;;3.20;3.00;;;;;;;15.24;50.86;97309.19;8092465;29;20248;-75
2022/04/25 11:02:25;;;;;;;3.10;2.80;;;;;;;15.17;50.49;97314.03;8092070;29;20245;-74
2022/04/25 11:06:29;;;;;;;3.33;3.03;;;;;;;15.25;50.14;97316.88;8092425;29;20315;-75
2022/04/25 11:10:45;;;;;;;2.87;2.67;;;;;;;15.21;49.84;97319.81;8092405;29;20571;-74
2022/04/25 11:14:58;;;;;;;2.80;2.60;;;;;;;15.32;49.49;97319.88;8092284;29;20267;-74
2022/04/25 11:19:16;;;;;;;2.97;2.67;;;;;;;15.54;50.48;97333.94;8092330;29;20300;-74
2022/04/25 11:23:26;;;;;;;2.80;2.60;;;;;;;15.44;48.83;97328.59;8092351;29;20246;-74
2022/04/25 11:28:02;;;;;;;4.03;3.07;;;;;;;15.41;50.25;97331.41;8091955;29;20257;-75
2022/04/25 11:32:26;;;;;;;3.50;3.20;;;;;;;15.41;51.90;97340.06;8092128;29;20245;-75
2022/04/25 11:36:30;;;;;;;3.23;2.93;;;;;;;15.51;50.33;97342.00;8091712;29;20241;-75
2022/04/25 11:40:33;;;;;;;3.10;2.90;;;;;;;15.52;50.20;97341.88;8096226;29;20241;-75
2022/04/25 11:44:38;;;;;;;4.90;3.17;;;;;;;15.49;49.70;97347.31;8098119;29;20555;-75
2022/04/25 11:48:41;;;;;;;4.10;3.10;;;;;;;15.56;49.44;97345.09;8098207;29;20269;-75
2022/04/25 11:52:45;;;;;;;3.17;2.60;;;;;;;15.57;49.64;97347.59;8097903;29;20249;-75
2022/04/25 11:56:48;;;;;;;3.07;2.87;;;;;;;15.40;49.85;97353.22;8098005;29;20620;-75
2022/04/25 12:00:53;;;;;;;2.90;2.70;;;;;;;15.54;49.67;97353.03;8097839;29;20242;-74
2022/04/25 12:04:56;;;;;;;4.67;3.13;;;;;;;15.59;50.39;97365.72;8097728;29;20270;-74
2022/04/25 12:17:43;;;;;;;3.60;2.70;;;;;;;15.44;50.47;97358.09;8097132;29;20553;-76
2022/04/25 12:21:48;;;;;;;3.73;3.43;;;;;;;15.60;50.28;97362.19;8097343;29;20237;-74
2022/04/25 12:25:52;;;;;;;5.30;4.80;;;;;;;15.38;49.67;97363.78;8097192;29;20238;-70
2022/04/25 12:30:05;;;;;;;5.83;3.73;;;;;;;15.55;49.49;97359.06;8097067;29;20548;-74
2022/04/25 12:34:12;;;;;;;4.43;3.90;;;;;;;15.43;49.43;97360.81;8096345;29;20313;-74
2022/04/25 12:38:38;;;;;;;4.07;3.67;;;;;;;15.37;48.65;97353.44;8096475;29;20253;-74
2022/04/25 12:42:50;;;;;;;4.00;3.60;;;;;;;15.63;48.63;97357.56;8096248;29;20241;-76
2022/04/25 12:47:00;;;;;;;4.27;3.87;;;;;;;15.78;49.18;97368.69;8096168;29;20257;-76
2022/04/25 12:51:05;;;;;;;4.40;3.97;;;;;;;15.89;49.53;97375.69;8095513;29;20241;-75
2022/04/25 12:55:08;;;;;;;3.10;2.90;;;;;;;16.05;48.28;97366.69;8095913;29;20246;-75
2022/04/25 12:59:11;;;;;;;3.63;3.20;;;;;;;16.15;48.32;97367.69;8096052;29;20241;-76
2022/04/25 13:03:14;;;;;;;3.07;2.87;;;;;;;15.55;48.00;97382.56;8096078;29;20246;-76
2022/04/25 13:07:20;;;;;;;4.00;3.60;;;;;;;16.08;47.61;97377.75;8095812;29;20246;-75
2022/04/25 13:11:23;;;;;;;3.90;3.60;;;;;;;16.25;46.30;97378.25;8095571;29;20553;-75
2022/04/25 13:15:29;;;;;;;4.07;3.20;;;;;;;16.30;46.92;97382.16;8095612;29;20245;-75
2022/04/25 13:19:32;;;;;;;3.80;3.40;;;;;;;16.59;47.42;97372.06;8095519;29;20458;-76
2022/04/25 13:23:37;;;;;;;3.40;3.10;;;;;;;16.71;46.94;97369.44;8095412;29;20241;-76
2022/04/25 13:27:40;;;;;;;5.87;3.33;;;;;;;16.81;45.08;97371.22;8095502;29;20246;-76
2022/04/25 13:31:44;;;;;;;4.43;4.00;;;;;;;16.49;45.89;97360.66;8095178;29;20244;-75
2022/04/25 13:35:46;;;;;;;3.70;3.33;;;;;;;17.09;44.82;97362.97;8095168;29;20241;-75
2022/04/25 13:39:51;;;;;;;3.53;3.30;;;;;;;16.61;44.91;97361.50;8094862;29;20244;-76
2022/04/25 13:43:54;;;;;;;4.00;3.00;;;;;;;17.81;41.82;97364.91;8094744;29;20261;-75
2022/04/25 13:47:57;;;;;;;3.47;3.17;;;;;;;17.86;42.55;97364.56;8094840;29;20238;-76
2022/04/25 13:52:01;;;;;;;3.70;3.00;;;;;;;18.73;41.33;97358.88;8094683;29;20323;-75
2022/04/25 13:56:06;;;;;;;6.27;2.90;;;;;;;17.88;42.28;97363.47;8093469;29;20293;-76
2022/04/25 14:00:11;;;;;;;3.60;3.00;;;;;;;18.01;40.88;97352.81;8094410;29;20249;-75
2022/04/25 14:04:14;;;;;;;2.77;2.57;;;;;;;18.86;40.33;97354.25;8093809;29;20241;-75
2022/04/25 14:08:17;;;;;;;3.90;2.50;;;;;;;19.21;39.45;97350.31;8093959;29;20564;-75
2022/04/25 14:12:22;;;;;;;3.80;3.33;;;;;;;17.86;39.87;97357.53;8094176;29;20436;-76
2022/04/25 14:16:25;;;;;;;2.33;2.13;;;;;;;17.41;40.74;97352.50;8093606;29;20247;-75
2022/04/25 14:20:28;;;;;;;3.10;2.90;;;;;;;16.62;42.64;97363.16;8093900;29;20241;-76
2022/04/25 14:24:37;;;;;;;4.13;2.80;;;;;;;16.60;42.84;97350.22;8092783;29;20245;-75
2022/04/25 14:28:42;;;;;;;3.40;3.00;;;;;;;16.34;42.66;97352.25;8093624;29;20560;-76
2022/04/25 14:33:05;;;;;;;4.63;3.00;;;;;;;16.49;42.48;97337.16;8093506;29;20245;-75
2022/04/25 14:37:08;;;;;;;2.40;2.20;;;;;;;16.77;41.81;97335.81;8093212;29;20252;-75
2022/04/25 14:41:14;;;;;;;2.60;2.40;;;;;;;16.47;42.51;97339.06;8092946;29;20341;-76
2022/04/25 14:45:19;;;;;;;2.60;2.40;;;;;;;16.35;43.61;97340.00;8093142;29;20416;-75
2022/04/25 14:54:20;;;;;;;2.50;2.30;;;;;;;16.42;44.18;97349.03;8092725;29;20633;-74
2022/04/25 14:58:05;;;;;;;2.47;2.27;;;;;;;16.82;43.69;97356.38;8092556;29;20252;-78
2022/04/25 15:02:10;;;;;;;3.37;2.50;;;;;;;16.48;41.99;97358.16;8092702;29;20439;-72
2022/04/25 15:06:13;;;;;;;2.90;2.30;;;;;;;16.16;42.87;97357.13;8092393;29;20268;-74
2022/04/25 15:10:16;;;;;;;1.87;1.77;;;;;;;16.26;41.66;97356.38;8092615;29;20246;-75
2022/04/25 15:14:19;;;;;;;1.90;1.70;;;;;;;16.05;41.56;97366.69;8092077;29;20245;-74
2022/04/25 15:18:23;;;;;;;2.17;1.80;;;;;;;16.16;40.93;97361.47;8091816;29;20249;-74
2022/04/25 15:22:26;;;;;;;2.03;1.77;;;;;;;16.28;42.28;97360.56;8092301;29;20242;-74
2022/04/25 15:26:29;;;;;;;2.20;2.00;;;;;;;16.51;42.76;97355.34;8092172;29;20252;-74
2022/04/25 15:30:33;;;;;;;2.57;2.37;;;;;;;16.13;43.41;97359.13;8092409;29;20241;-75
2022/04/25 15:34:37;;;;;;;5.20;2.47;;;;;;;16.03;43.79;97374.66;8092276;29;20252;-75
2022/04/25 15:38:40;;;;;;;2.90;2.10;;;;;;;15.74;44.83;97375.06;8092159;29;20248;-75
2022/04/25 15:42:43;;;;;;;2.60;2.40;;;;;;;15.87;44.29;97371.53;8092180;29;20524;-75
2022/04/25 15:46:54;;;;;;;2.27;2.10;;;;;;;16.24;44.25;97377.41;8092089;29;20474;-75
2022/04/25 15:50:58;;;;;;;3.10;2.87;;;;;;;15.90;44.00;97387.00;8092134;29;20637;-75
2022/04/25 15:59:24;;;;;;;4.00;2.77;;;;;;;15.95;44.46;97372.59;8091490;29;20244;-74
2022/04/25 16:03:27;;;;;;;2.90;2.60;;;;;;;16.00;44.65;97380.13;8091649;29;20412;-74
2022/04/25 16:07:32;;;;;;;2.33;2.10;;;;;;;15.97;45.34;97377.72;8091834;29;20309;-75
2022/04/25 16:11:41;;;;;;;2.40;2.20;;;;;;;15.95;44.86;97388.28;8091325;29;20238;-75
2022/04/25 16:15:44;;;;;;;2.30;2.10;;;;;;;15.87;44.95;97374.97;8091822;29;20238;-75
2022/04/25 16:19:47;;;;;;;3.83;3.37;;;;;;;16.17;45.30;97377.03;8091548;29;20641;-77
2022/04/25 16:23:51;;;;;;;2.17;2.00;;;;;;;15.87;44.73;97376.75;8091908;29;20237;-75
2022/04/25 16:27:54;;;;;;;3.47;2.40;;;;;;;15.63;45.85;97378.44;8096792;29;20305;-75
2022/04/25 16:31:57;;;;;;;3.20;2.00;;;;;;;15.79;46.27;97377.34;8096740;29;20242;-75
2022/04/25 16:36:01;;;;;;;2.23;2.03;;;;;;;15.83;45.93;97378.78;8096623;29;20525;-74
2022/04/25 16:40:07;;;;;;;6.40;2.30;;;;;;;16.05;45.73;97372.78;8096274;29;20245;-74
2022/04/25 16:44:10;;;;;;;2.60;2.40;;;;;;;15.79;45.66;97375.56;8096737;29;20536;-76
2022/04/25 16:48:13;;;;;;;2.30;2.10;;;;;;;15.75;46.37;97375.91;8096595;29;20439;-75
2022/04/25 16:52:16;;;;;;;8.27;7.47;;;;;;;15.50;46.53;97371.63;8096474;29;20245;-74
2022/04/25 16:56:22;;;;;;;6.27;5.67;;;;;;;15.30;46.92;97375.72;8096173;29;20249;-75
2022/04/25 17:00:25;;;;;;;4.37;3.27;;;;;;;15.46;47.25;97378.88;8095015;29;20246;-75
2022/04/25 17:04:28;;;;;;;4.07;2.60;;;;;;;15.54;47.84;97381.75;8095406;29;20536;-78
2022/04/25 17:08:33;;;;;;;4.43;3.07;;;;;;;15.54;47.36;97378.31;8085425;29;20295;-76
2022/04/25 17:12:38;;;;;;;2.70;2.50;;;;;;;15.43;47.94;97381.69;8064281;29;20442;-74
2022/04/25 17:16:41;;;;;;;3.20;3.00;;;;;;;15.45;47.02;97388.47;8064420;29;20250;-74
2022/04/25 17:20:44;;;;;;;3.70;3.40;;;;;;;15.30;47.34;97392.19;8064574;29;20431;-75
2022/04/25 17:24:47;;;;;;;3.20;2.23;;;;;;;15.28;47.51;97388.03;8064700;29;20253;-76
2022/04/25 17:28:52;;;;;;;2.40;2.20;;;;;;;15.04;48.19;97396.66;8064610;29;20249;-77
